Mobridge Municipal Airport
KMBG : now visible

Airfield :











YOU CAN JOIN US ON...

 
LOGIN :

Register | Disclaimer

   EN    FR    IT 

 









Legend :    VFR   Marginal VFR   IFR   Intensive IFR   Very Intensive IFR
Visi :
Ceiling :
>= 8 km
>= 3000ft
5 to 8 km
1000 to 3000 ft
1500m to 5 km
500 to 1000 ft
800 to 1500m
200 to 500 ft
< 800m
< 200 ft
Symbols :   Thunderstorms  Fog  Heavy snow  Heavy precipitations  Wind > 20 kt






- Airport Elevation : 1716 ft


KMBG - Mobridge Municipal

CURRENT METAR :
  • 080652Z AUTO 14007KT 10SM CLR 00/M03 A3000 RMK AO2 SLP171 T00001028

EXPIRED METARs :
  • 080552Z AUTO 13005KT 10SM CLR 00/M03 A3000 RMK AO2 SLP172 T00001028 10050 21011 400941061 56010
  • 080452Z AUTO 00000KT 10SM CLR M01/M03 A3000 RMK AO2 SLP175 T10111033

TAF KMBG
Valid from the 08 at 06:00 until the 09 at 06:00 UTC


080520Z 0806/0906 VRB03KT P6SM FEW250
FM082100 31007KT P6SM BKN150
KZMP FIR / North America



MET'MAP, your aeronautical weather chart ! - Copyright ORBIFLY December 2007 - Disclaimer

ORBIFLY MET'MAP TEAM :

Programming & Development : Alexandra Zaïnal
Original concept : Baudouin d'Aumeries
Technical & hardware support : Manuel Goepfert
Assistance : Marc-Olivier Méhu




SOURCES & CREDITS :

   NOAA       Earth
Advisory